sensor_id;sensor_type;location;lat;lon;timestamp;pressure;altitude;pressure_sealevel;temperature;humidity
74921;BME280;63483;47.384;8.860;2024-02-21T00:00:54;95639.28;;;1.58;49.49
74921;BME280;63483;47.384;8.860;2024-02-21T00:03:20;95643.41;;;1.61;49.37
74921;BME280;63483;47.384;8.860;2024-02-21T00:05:45;95639.06;;;1.61;49.12
74921;BME280;63483;47.384;8.860;2024-02-21T00:08:10;95633.72;;;1.65;49.16
74921;BME280;63483;47.384;8.860;2024-02-21T00:10:36;95637.22;;;1.64;49.21
74921;BME280;63483;47.384;8.860;2024-02-21T00:13:01;95637.22;;;1.64;49.17
74921;BME280;63483;47.384;8.860;2024-02-21T00:15:27;95635.56;;;1.63;49.01
74921;BME280;63483;47.384;8.860;2024-02-21T00:17:52;95637.03;;;1.67;49.14
74921;BME280;63483;47.384;8.860;2024-02-21T00:20:18;95623.09;;;1.69;49.26
74921;BME280;63483;47.384;8.860;2024-02-21T00:22:44;95618.03;;;1.68;48.95
74921;BME280;63483;47.384;8.860;2024-02-21T00:25:09;95620.50;;;1.69;49.14
74921;BME280;63483;47.384;8.860;2024-02-21T00:27:35;95621.34;;;1.70;48.87
74921;BME280;63483;47.384;8.860;2024-02-21T00:30:00;95623.19;;;1.68;48.84
74921;BME280;63483;47.384;8.860;2024-02-21T00:32:25;95618.97;;;1.67;49.11
74921;BME280;63483;47.384;8.860;2024-02-21T00:34:51;95625.03;;;1.66;48.79
74921;BME280;63483;47.384;8.860;2024-02-21T00:37:16;95614.72;;;1.66;48.78
74921;BME280;63483;47.384;8.860;2024-02-21T00:39:41;95614.72;;;1.66;48.79
74921;BME280;63483;47.384;8.860;2024-02-21T00:42:07;95616.56;;;1.64;48.60
74921;BME280;63483;47.384;8.860;2024-02-21T00:44:32;95610.66;;;1.61;48.58
74921;BME280;63483;47.384;8.860;2024-02-21T00:46:58;95612.53;;;1.59;49.00
74921;BME280;63483;47.384;8.860;2024-02-21T00:49:23;95620.28;;;1.59;48.75
74921;BME280;63483;47.384;8.860;2024-02-21T00:51:48;95603.97;;;1.59;48.85
74921;BME280;63483;47.384;8.860;2024-02-21T00:54:14;95599.00;;;1.56;48.88
74921;BME280;63483;47.384;8.860;2024-02-21T00:56:39;95598.91;;;1.57;48.77
74921;BME280;63483;47.384;8.860;2024-02-21T00:59:05;95606.66;;;1.57;48.80
74921;BME280;63483;47.384;8.860;2024-02-21T01:01:30;95608.28;;;1.58;48.67
74921;BME280;63483;47.384;8.860;2024-02-21T01:03:55;95594.47;;;1.59;48.83
74921;BME280;63483;47.384;8.860;2024-02-21T01:06:21;95586.00;;;1.57;48.85
74921;BME280;63483;47.384;8.860;2024-02-21T01:08:47;95575.97;;;0.71;48.62
74921;BME280;63483;47.384;8.860;2024-02-21T01:11:16;95583.03;;;-0.18;44.07
74921;BME280;63483;47.384;8.860;2024-02-21T01:13:41;95585.09;;;-0.83;43.75
74921;BME280;63483;47.384;8.860;2024-02-21T01:16:07;95582.66;;;-1.33;45.69
74921;BME280;63483;47.384;8.860;2024-02-21T01:18:33;95575.31;;;-1.73;45.08
74921;BME280;63483;47.384;8.860;2024-02-21T01:20:59;95575.41;;;-1.74;48.47
74921;BME280;63483;47.384;8.860;2024-02-21T01:23:24;95584.13;;;-1.61;60.76
74921;BME280;63483;47.384;8.860;2024-02-21T01:25:50;95581.41;;;-1.91;52.06
74921;BME280;63483;47.384;8.860;2024-02-21T01:28:15;95572.88;;;-2.25;50.43
74921;BME280;63483;47.384;8.860;2024-02-21T01:30:40;95579.94;;;-2.46;50.16
74921;BME280;63483;47.384;8.860;2024-02-21T01:33:06;95579.81;;;-2.78;49.21
74921;BME280;63483;47.384;8.860;2024-02-21T01:35:31;95577.53;;;-3.02;49.04
74921;BME280;63483;47.384;8.860;2024-02-21T01:37:56;95583.50;;;-3.20;48.87
74921;BME280;63483;47.384;8.860;2024-02-21T01:40:21;95582.28;;;-3.31;49.55
74921;BME280;63483;47.384;8.860;2024-02-21T01:42:47;95584.63;;;-3.45;50.12
74921;BME280;63483;47.384;8.860;2024-02-21T01:45:13;95577.75;;;-3.62;49.97
74921;BME280;63483;47.384;8.860;2024-02-21T01:47:39;95586.25;;;-3.61;49.85
74921;BME280;63483;47.384;8.860;2024-02-21T01:50:04;95572.97;;;-3.70;49.64
74921;BME280;63483;47.384;8.860;2024-02-21T01:52:30;95579.13;;;-3.74;50.13
74921;BME280;63483;47.384;8.860;2024-02-21T01:54:57;95573.94;;;-3.72;49.70
74921;BME280;63483;47.384;8.860;2024-02-21T01:57:23;95572.47;;;-3.78;48.85
74921;BME280;63483;47.384;8.860;2024-02-21T01:59:49;95570.69;;;-3.76;48.94
74921;BME280;63483;47.384;8.860;2024-02-21T02:02:15;95565.44;;;-3.73;49.27
74921;BME280;63483;47.384;8.860;2024-02-21T02:04:41;95554.75;;;-3.63;48.54
74921;BME280;63483;47.384;8.860;2024-02-21T02:07:07;95547.44;;;-3.52;47.21
74921;BME280;63483;47.384;8.860;2024-02-21T02:09:33;95542.94;;;-3.29;47.85
74921;BME280;63483;47.384;8.860;2024-02-21T02:11:59;95536.50;;;-3.02;47.76
74921;BME280;63483;47.384;8.860;2024-02-21T02:14:25;95531.28;;;-2.83;48.07
74921;BME280;63483;47.384;8.860;2024-02-21T02:16:50;95527.91;;;-2.66;46.25
74921;BME280;63483;47.384;8.860;2024-02-21T02:19:16;95526.59;;;-2.23;49.83
74921;BME280;63483;47.384;8.860;2024-02-21T02:21:46;95518.81;;;-1.88;49.29
74921;BME280;63483;47.384;8.860;2024-02-21T02:24:19;95522.13;;;-1.55;49.70
74921;BME280;63483;47.384;8.860;2024-02-21T02:26:45;95523.75;;;-1.22;53.29
74921;BME280;63483;47.384;8.860;2024-02-21T02:29:10;95520.47;;;-0.93;53.66
74921;BME280;63483;47.384;8.860;2024-02-21T02:31:36;95520.16;;;-0.73;53.32
74921;BME280;63483;47.384;8.860;2024-02-21T02:34:02;95512.97;;;-0.52;55.39
74921;BME280;63483;47.384;8.860;2024-02-21T02:36:28;95516.91;;;-0.32;53.01
74921;BME280;63483;47.384;8.860;2024-02-21T02:38:53;95503.97;;;-0.16;52.99
74921;BME280;63483;47.384;8.860;2024-02-21T02:41:18;95490.22;;;-0.02;53.04
74921;BME280;63483;47.384;8.860;2024-02-21T02:43:44;95488.84;;;0.07;52.71
74921;BME280;63483;47.384;8.860;2024-02-21T02:46:09;95476.94;;;0.19;51.64
74921;BME280;63483;47.384;8.860;2024-02-21T02:48:34;95469.69;;;0.26;51.93
74921;BME280;63483;47.384;8.860;2024-02-21T02:50:59;95471.88;;;0.32;51.74
74921;BME280;63483;47.384;8.860;2024-02-21T02:53:25;95481.59;;;0.41;51.97
74921;BME280;63483;47.384;8.860;2024-02-21T02:55:50;95470.88;;;0.47;51.34
74921;BME280;63483;47.384;8.860;2024-02-21T02:58:15;95470.44;;;0.55;51.58
74921;BME280;63483;47.384;8.860;2024-02-21T03:00:41;95470.84;;;0.62;51.35
74921;BME280;63483;47.384;8.860;2024-02-21T03:03:06;95469.72;;;0.66;51.81
74921;BME280;63483;47.384;8.860;2024-02-21T03:05:33;95469.53;;;0.69;51.45
74921;BME280;63483;47.384;8.860;2024-02-21T03:07:59;95465.00;;;0.72;51.32
74921;BME280;63483;47.384;8.860;2024-02-21T03:10:24;95463.88;;;0.77;51.86
74921;BME280;63483;47.384;8.860;2024-02-21T03:12:49;95458.63;;;0.78;51.70
74921;BME280;63483;47.384;8.860;2024-02-21T03:15:17;95453.34;;;0.80;51.31
74921;BME280;63483;47.384;8.860;2024-02-21T03:17:43;95439.25;;;0.85;51.82
74921;BME280;63483;47.384;8.860;2024-02-21T03:20:08;95438.13;;;0.89;50.96
74921;BME280;63483;47.384;8.860;2024-02-21T03:22:35;95441.41;;;0.91;51.56
74921;BME280;63483;47.384;8.860;2024-02-21T03:25:00;95431.63;;;0.97;51.08
74921;BME280;63483;47.384;8.860;2024-02-21T03:27:26;95430.69;;;0.98;51.34
74921;BME280;63483;47.384;8.860;2024-02-21T03:29:51;95419.34;;;1.00;50.94
74921;BME280;63483;47.384;8.860;2024-02-21T03:32:17;95403.56;;;1.05;51.29
74921;BME280;63483;47.384;8.860;2024-02-21T03:34:42;95406.88;;;1.07;51.14
74921;BME280;63483;47.384;8.860;2024-02-21T03:37:07;95405.72;;;1.11;50.91
74921;BME280;63483;47.384;8.860;2024-02-21T03:39:33;95406.47;;;1.13;51.34
74921;BME280;63483;47.384;8.860;2024-02-21T03:41:58;95406.47;;;1.13;51.03
74921;BME280;63483;47.384;8.860;2024-02-21T03:44:30;95402.94;;;1.14;50.80
74921;BME280;63483;47.384;8.860;2024-02-21T03:46:56;95394.50;;;1.12;50.96
74921;BME280;63483;47.384;8.860;2024-02-21T03:49:21;95394.28;;;1.15;50.75
74921;BME280;63483;47.384;8.860;2024-02-21T03:51:46;95394.28;;;1.15;50.99
74921;BME280;63483;47.384;8.860;2024-02-21T03:54:11;95379.63;;;1.16;50.95
74921;BME280;63483;47.384;8.860;2024-02-21T03:56:37;95376.97;;;1.17;51.19
74921;BME280;63483;47.384;8.860;2024-02-21T03:59:04;95373.44;;;1.18;50.95
74921;BME280;63483;47.384;8.860;2024-02-21T04:01:30;95368.16;;;1.20;51.33
74921;BME280;63483;47.384;8.860;2024-02-21T04:03:55;95362.88;;;1.21;51.10
74921;BME280;63483;47.384;8.860;2024-02-21T04:06:20;95354.94;;;1.24;51.12
74921;BME280;63483;47.384;8.860;2024-02-21T04:08:46;95348.84;;;1.25;51.11
74921;BME280;63483;47.384;8.860;2024-02-21T04:11:11;95346.16;;;1.27;51.03
74921;BME280;63483;47.384;8.860;2024-02-21T04:13:36;95346.06;;;1.29;50.89
74921;BME280;63483;47.384;8.860;2024-02-21T04:16:02;95346.06;;;1.29;51.03
74921;BME280;63483;47.384;8.860;2024-02-21T04:18:28;95343.47;;;1.29;50.70
74921;BME280;63483;47.384;8.860;2024-02-21T04:20:53;95338.09;;;1.32;50.79
74921;BME280;63483;47.384;8.860;2024-02-21T04:23:19;95337.06;;;1.34;50.72
74921;BME280;63483;47.384;8.860;2024-02-21T04:25:44;95329.22;;;1.36;50.97
74921;BME280;63483;47.384;8.860;2024-02-21T04:28:09;95332.50;;;1.38;50.58
74921;BME280;63483;47.384;8.860;2024-02-21T04:30:34;95323.75;;;1.40;50.63
74921;BME280;63483;47.384;8.860;2024-02-21T04:33:00;95329.66;;;1.42;50.75
74921;BME280;63483;47.384;8.860;2024-02-21T04:35:25;95324.41;;;1.44;50.85
74921;BME280;63483;47.384;8.860;2024-02-21T04:37:51;95314.06;;;1.44;50.78
74921;BME280;63483;47.384;8.860;2024-02-21T04:40:16;95315.75;;;0.68;50.95
74921;BME280;63483;47.384;8.860;2024-02-21T04:42:42;95311.63;;;-0.28;46.93
74921;BME280;63483;47.384;8.860;2024-02-21T04:45:08;95321.44;;;-0.91;47.44
74921;BME280;63483;47.384;8.860;2024-02-21T04:47:33;95318.25;;;-1.53;47.02
74921;BME280;63483;47.384;8.860;2024-02-21T04:49:58;95319.19;;;-1.85;48.13
74921;BME280;63483;47.384;8.860;2024-02-21T04:52:24;95331.25;;;-2.17;49.03
74921;BME280;63483;47.384;8.860;2024-02-21T04:54:49;95325.66;;;-1.94;49.74
74921;BME280;63483;47.384;8.860;2024-02-21T04:57:15;95334.47;;;-2.30;49.26
74921;BME280;63483;47.384;8.860;2024-02-21T04:59:43;95340.50;;;-2.63;49.15
74921;BME280;63483;47.384;8.860;2024-02-21T05:02:09;95341.06;;;-2.89;49.18
74921;BME280;63483;47.384;8.860;2024-02-21T05:04:34;95332.34;;;-3.03;48.70
74921;BME280;63483;47.384;8.860;2024-02-21T05:07:00;95326.78;;;-3.11;49.14
74921;BME280;63483;47.384;8.860;2024-02-21T05:09:26;95322.28;;;-3.23;48.51
74921;BME280;63483;47.384;8.860;2024-02-21T05:11:51;95319.16;;;-3.28;48.56
74921;BME280;63483;47.384;8.860;2024-02-21T05:14:16;95314.84;;;-3.28;48.10
74921;BME280;63483;47.384;8.860;2024-02-21T05:16:42;95299.97;;;-3.21;48.24
74921;BME280;63483;47.384;8.860;2024-02-21T05:19:07;95293.63;;;-3.14;47.81
74921;BME280;63483;47.384;8.860;2024-02-21T05:21:32;95291.28;;;-2.85;49.01
74921;BME280;63483;47.384;8.860;2024-02-21T05:23:58;95277.81;;;-2.73;47.14
74921;BME280;63483;47.384;8.860;2024-02-21T05:26:25;95272.75;;;-2.58;47.56
74921;BME280;63483;47.384;8.860;2024-02-21T05:28:51;95283.16;;;-2.30;48.01
74921;BME280;63483;47.384;8.860;2024-02-21T05:31:20;95289.03;;;-1.97;48.75
74921;BME280;63483;47.384;8.860;2024-02-21T05:33:46;95289.59;;;-1.62;50.83
74921;BME280;63483;47.384;8.860;2024-02-21T05:36:12;95294.38;;;-2.16;60.98
74921;BME280;63483;47.384;8.860;2024-02-21T05:38:38;95297.72;;;-2.62;53.24
74921;BME280;63483;47.384;8.860;2024-02-21T05:41:04;95285.16;;;-2.99;51.52
74921;BME280;63483;47.384;8.860;2024-02-21T05:43:29;95279.97;;;-3.31;51.93
74921;BME280;63483;47.384;8.860;2024-02-21T05:45:55;95284.16;;;-3.63;52.20
74921;BME280;63483;47.384;8.860;2024-02-21T05:48:22;95285.28;;;-3.69;53.45
74921;BME280;63483;47.384;8.860;2024-02-21T05:50:47;95286.94;;;-3.85;52.69
74921;BME280;63483;47.384;8.860;2024-02-21T05:53:12;95284.69;;;-3.91;53.08
74921;BME280;63483;47.384;8.860;2024-02-21T05:55:38;95284.53;;;-4.06;53.49
74921;BME280;63483;47.384;8.860;2024-02-21T05:58:03;95291.25;;;-4.03;52.70
74921;BME280;63483;47.384;8.860;2024-02-21T06:00:29;95300.81;;;-4.07;51.96
74921;BME280;63483;47.384;8.860;2024-02-21T06:02:54;95288.91;;;-4.08;51.83
74921;BME280;63483;47.384;8.860;2024-02-21T06:05:20;95280.50;;;-4.10;51.41
74921;BME280;63483;47.384;8.860;2024-02-21T06:07:45;95282.13;;;-4.09;51.34
74921;BME280;63483;47.384;8.860;2024-02-21T06:10:10;95278.69;;;-4.08;50.73
74921;BME280;63483;47.384;8.860;2024-02-21T06:12:36;95281.56;;;-3.96;49.69
74921;BME280;63483;47.384;8.860;2024-02-21T06:15:01;95276.28;;;-3.93;50.39
74921;BME280;63483;47.384;8.860;2024-02-21T06:17:27;95273.41;;;-3.87;50.33
74921;BME280;63483;47.384;8.860;2024-02-21T06:19:52;95260.31;;;-3.81;47.92
74921;BME280;63483;47.384;8.860;2024-02-21T06:22:17;95263.19;;;-3.54;47.49
74921;BME280;63483;47.384;8.860;2024-02-21T06:24:43;95251.03;;;-3.33;49.23
74921;BME280;63483;47.384;8.860;2024-02-21T06:27:09;95244.88;;;-2.97;49.97
74921;BME280;63483;47.384;8.860;2024-02-21T06:29:34;95252.97;;;-2.56;50.15
74921;BME280;63483;47.384;8.860;2024-02-21T06:32:00;95247.72;;;-2.23;52.44
74921;BME280;63483;47.384;8.860;2024-02-21T06:34:25;95251.56;;;-1.85;52.22
74921;BME280;63483;47.384;8.860;2024-02-21T06:36:51;95246.13;;;-1.50;52.44
74921;BME280;63483;47.384;8.860;2024-02-21T06:39:16;95249.44;;;-1.20;55.14
74921;BME280;63483;47.384;8.860;2024-02-21T06:41:42;95253.09;;;-0.95;53.89
74921;BME280;63483;47.384;8.860;2024-02-21T06:44:07;95255.28;;;-0.74;53.32
74921;BME280;63483;47.384;8.860;2024-02-21T06:46:33;95255.97;;;-0.58;53.69
74921;BME280;63483;47.384;8.860;2024-02-21T06:48:59;95256.69;;;-0.41;53.29
74921;BME280;63483;47.384;8.860;2024-02-21T06:51:25;95259.19;;;-0.27;53.91
74921;BME280;63483;47.384;8.860;2024-02-21T06:53:50;95251.41;;;-0.12;52.87
74921;BME280;63483;47.384;8.860;2024-02-21T06:56:16;95255.03;;;-0.02;52.52
74921;BME280;63483;47.384;8.860;2024-02-21T06:58:41;95244.22;;;0.06;53.34
74921;BME280;63483;47.384;8.860;2024-02-21T07:01:07;95247.84;;;0.16;52.50
74921;BME280;63483;47.384;8.860;2024-02-21T07:03:32;95245.50;;;0.26;53.09
74921;BME280;63483;47.384;8.860;2024-02-21T07:05:58;95254.16;;;0.25;53.83
74921;BME280;63483;47.384;8.860;2024-02-21T07:08:23;95257.97;;;0.32;52.68
74921;BME280;63483;47.384;8.860;2024-02-21T07:10:49;95261.81;;;0.39;52.82
74921;BME280;63483;47.384;8.860;2024-02-21T07:13:14;95256.94;;;0.47;52.96
74921;BME280;63483;47.384;8.860;2024-02-21T07:15:41;95274.59;;;0.53;52.37
74921;BME280;63483;47.384;8.860;2024-02-21T07:18:06;95265.28;;;0.25;53.96
74921;BME280;63483;47.384;8.860;2024-02-21T07:20:31;95266.13;;;-0.83;48.95
74921;BME280;63483;47.384;8.860;2024-02-21T07:22:59;95268.84;;;-1.59;49.19
74921;BME280;63483;47.384;8.860;2024-02-21T07:25:24;95265.25;;;-2.15;49.61
74921;BME280;63483;47.384;8.860;2024-02-21T07:27:49;95267.03;;;-2.64;50.16
74921;BME280;63483;47.384;8.860;2024-02-21T07:30:15;95266.03;;;-2.93;51.01
74921;BME280;63483;47.384;8.860;2024-02-21T07:32:40;95269.75;;;-3.15;51.65
74921;BME280;63483;47.384;8.860;2024-02-21T07:35:05;95264.00;;;-3.36;51.69
74921;BME280;63483;47.384;8.860;2024-02-21T07:37:35;95264.63;;;-3.48;51.74
74921;BME280;63483;47.384;8.860;2024-02-21T07:40:01;95265.84;;;-3.55;55.02
74921;BME280;63483;47.384;8.860;2024-02-21T07:42:26;95264.19;;;-3.56;59.22
74921;BME280;63483;47.384;8.860;2024-02-21T07:44:51;95261.47;;;-3.53;53.42
74921;BME280;63483;47.384;8.860;2024-02-21T07:47:17;95259.91;;;-3.56;52.28
74921;BME280;63483;47.384;8.860;2024-02-21T07:49:44;95256.28;;;-3.52;51.54
74921;BME280;63483;47.384;8.860;2024-02-21T07:52:10;95249.66;;;-3.56;50.61
74921;BME280;63483;47.384;8.860;2024-02-21T07:54:36;95251.25;;;-3.71;50.07
74921;BME280;63483;47.384;8.860;2024-02-21T07:57:01;95250.53;;;-3.73;50.53
74921;BME280;63483;47.384;8.860;2024-02-21T07:59:28;95238.13;;;-3.47;50.01
74921;BME280;63483;47.384;8.860;2024-02-21T08:01:56;95231.16;;;-3.11;49.20
74921;BME280;63483;47.384;8.860;2024-02-21T08:04:21;95225.78;;;-3.07;47.03
74921;BME280;63483;47.384;8.860;2024-02-21T08:06:51;95225.03;;;-2.77;50.36
74921;BME280;63483;47.384;8.860;2024-02-21T08:09:18;95218.41;;;-2.19;52.08
74921;BME280;63483;47.384;8.860;2024-02-21T08:11:43;95211.22;;;-1.69;53.89
74921;BME280;63483;47.384;8.860;2024-02-21T08:14:09;95200.22;;;-1.28;54.77
74921;BME280;63483;47.384;8.860;2024-02-21T08:16:34;95198.94;;;-1.06;54.15
74921;BME280;63483;47.384;8.860;2024-02-21T08:18:59;95203.88;;;-1.90;59.87
74921;BME280;63483;47.384;8.860;2024-02-21T08:21:27;95190.94;;;-2.33;53.54
74921;BME280;63483;47.384;8.860;2024-02-21T08:23:52;95192.84;;;-2.67;52.48
74921;BME280;63483;47.384;8.860;2024-02-21T08:26:19;95199.47;;;-2.95;52.69
74921;BME280;63483;47.384;8.860;2024-02-21T08:28:44;95201.81;;;-3.06;53.36
74921;BME280;63483;47.384;8.860;2024-02-21T08:31:10;95196.81;;;-2.77;54.29
74921;BME280;63483;47.384;8.860;2024-02-21T08:33:35;95195.00;;;-2.75;53.54
74921;BME280;63483;47.384;8.860;2024-02-21T08:36:00;95198.94;;;-2.53;54.19
74921;BME280;63483;47.384;8.860;2024-02-21T08:38:25;95196.78;;;-2.45;53.18
74921;BME280;63483;47.384;8.860;2024-02-21T08:40:51;95186.56;;;-2.31;55.40
74921;BME280;63483;47.384;8.860;2024-02-21T08:43:16;95187.19;;;-1.97;54.96
74921;BME280;63483;47.384;8.860;2024-02-21T08:45:41;95191.84;;;-2.03;52.05
74921;BME280;63483;47.384;8.860;2024-02-21T08:48:07;95185.84;;;-2.18;50.81
74921;BME280;63483;47.384;8.860;2024-02-21T08:50:33;95188.03;;;-2.27;50.46
74921;BME280;63483;47.384;8.860;2024-02-21T08:52:58;95184.78;;;-2.14;51.77
74921;BME280;63483;47.384;8.860;2024-02-21T08:55:23;95186.75;;;-1.89;50.27
74921;BME280;63483;47.384;8.860;2024-02-21T08:57:49;95185.47;;;-1.82;50.30
74921;BME280;63483;47.384;8.860;2024-02-21T09:00:15;95185.28;;;-1.79;49.41
74921;BME280;63483;47.384;8.860;2024-02-21T09:02:41;95185.72;;;-1.72;49.38
74921;BME280;63483;47.384;8.860;2024-02-21T09:05:10;95184.38;;;-1.34;50.84
74921;BME280;63483;47.384;8.860;2024-02-21T09:07:36;95179.75;;;-1.29;49.55
74921;BME280;63483;47.384;8.860;2024-02-21T09:10:01;95177.81;;;-1.26;48.08
74921;BME280;63483;47.384;8.860;2024-02-21T09:12:26;95179.47;;;-1.10;47.73
74921;BME280;63483;47.384;8.860;2024-02-21T09:14:52;95177.19;;;-1.00;48.01
74921;BME280;63483;47.384;8.860;2024-02-21T09:17:17;95179.75;;;-0.46;53.61
74921;BME280;63483;47.384;8.860;2024-02-21T09:19:44;95176.84;;;0.12;54.94
74921;BME280;63483;47.384;8.860;2024-02-21T09:22:09;95172.63;;;0.49;53.54
74921;BME280;63483;47.384;8.860;2024-02-21T09:24:34;95170.94;;;0.74;53.04
74921;BME280;63483;47.384;8.860;2024-02-21T09:26:59;95165.56;;;1.14;52.59
74921;BME280;63483;47.384;8.860;2024-02-21T09:29:25;95159.19;;;1.44;51.96
74921;BME280;63483;47.384;8.860;2024-02-21T09:31:51;95155.66;;;1.69;51.44
74921;BME280;63483;47.384;8.860;2024-02-21T09:34:17;95158.59;;;1.76;51.12
74921;BME280;63483;47.384;8.860;2024-02-21T09:36:42;95159.94;;;2.04;50.79
74921;BME280;63483;47.384;8.860;2024-02-21T09:39:08;95164.09;;;2.18;50.03
74921;BME280;63483;47.384;8.860;2024-02-21T09:41:38;95151.91;;;2.31;48.89
74921;BME280;63483;47.384;8.860;2024-02-21T09:44:06;95157.78;;;2.45;48.85
74921;BME280;63483;47.384;8.860;2024-02-21T09:51:51;95156.22;;;2.99;48.02
74921;BME280;63483;47.384;8.860;2024-02-21T09:54:19;95153.38;;;3.13;45.47
74921;BME280;63483;47.384;8.860;2024-02-21T09:56:47;95151.56;;;3.25;46.43
74921;BME280;63483;47.384;8.860;2024-02-21T09:59:15;95148.16;;;3.36;44.31
74921;BME280;63483;47.384;8.860;2024-02-21T10:01:42;95141.75;;;3.51;44.00
74921;BME280;63483;47.384;8.860;2024-02-21T10:04:08;95146.06;;;3.62;42.60
74921;BME280;63483;47.384;8.860;2024-02-21T10:06:34;95137.53;;;3.71;43.49
74921;BME280;63483;47.384;8.860;2024-02-21T10:08:59;95144.44;;;3.82;42.42
74921;BME280;63483;47.384;8.860;2024-02-21T10:11:25;95133.31;;;3.92;42.58
74921;BME280;63483;47.384;8.860;2024-02-21T10:13:51;95144.56;;;4.02;42.15
74921;BME280;63483;47.384;8.860;2024-02-21T10:16:17;95140.66;;;4.07;41.78
74921;BME280;63483;47.384;8.860;2024-02-21T10:18:42;95146.13;;;4.14;42.53
74921;BME280;63483;47.384;8.860;2024-02-21T10:21:08;95148.78;;;4.24;41.92
74921;BME280;63483;47.384;8.860;2024-02-21T10:23:49;95144.47;;;4.34;42.22
74921;BME280;63483;47.384;8.860;2024-02-21T10:26:17;95129.66;;;4.46;41.45
74921;BME280;63483;47.384;8.860;2024-02-21T10:28:43;95129.00;;;4.54;40.19
74921;BME280;63483;47.384;8.860;2024-02-21T10:31:11;95134.19;;;4.54;41.36
74921;BME280;63483;47.384;8.860;2024-02-21T10:33:37;95127.69;;;4.69;41.94
74921;BME280;63483;47.384;8.860;2024-02-21T10:36:10;95124.88;;;4.82;40.95
74921;BME280;63483;47.384;8.860;2024-02-21T10:38:38;95121.59;;;4.90;38.93
74921;BME280;63483;47.384;8.860;2024-02-21T10:41:05;95114.69;;;5.00;40.46
74921;BME280;63483;47.384;8.860;2024-02-21T10:43:40;95116.22;;;5.12;39.76
74921;BME280;63483;47.384;8.860;2024-02-21T10:46:09;95109.53;;;5.20;39.18
74921;BME280;63483;47.384;8.860;2024-02-21T10:48:43;95098.88;;;5.23;38.38
74921;BME280;63483;47.384;8.860;2024-02-21T10:54:06;95097.09;;;5.33;37.59
74921;BME280;63483;47.384;8.860;2024-02-21T10:56:34;95097.78;;;5.35;39.06
74921;BME280;63483;47.384;8.860;2024-02-21T10:59:03;95097.25;;;5.41;37.97
74921;BME280;63483;47.384;8.860;2024-02-21T11:01:29;95085.63;;;5.45;38.26
74921;BME280;63483;47.384;8.860;2024-02-21T11:04:01;95086.44;;;5.56;37.99
74921;BME280;63483;47.384;8.860;2024-02-21T11:06:27;95084.09;;;5.62;38.57
74921;BME280;63483;47.384;8.860;2024-02-21T11:09:28;95070.69;;;5.67;37.86
74921;BME280;63483;47.384;8.860;2024-02-21T11:11:55;95072.34;;;5.68;36.80
74921;BME280;63483;47.384;8.860;2024-02-21T11:14:21;95072.47;;;5.76;36.66
74921;BME280;63483;47.384;8.860;2024-02-21T11:16:47;95058.78;;;5.84;36.52
74921;BME280;63483;47.384;8.860;2024-02-21T11:21:43;95046.72;;;5.93;36.35
74921;BME280;63483;47.384;8.860;2024-02-21T11:24:08;95034.78;;;6.00;36.89
74921;BME280;63483;47.384;8.860;2024-02-21T11:26:37;95031.75;;;6.05;37.51
74921;BME280;63483;47.384;8.860;2024-02-21T11:29:03;95025.84;;;6.12;37.72
74921;BME280;63483;47.384;8.860;2024-02-21T11:31:44;95015.84;;;6.17;36.93
74921;BME280;63483;47.384;8.860;2024-02-21T11:34:12;95007.59;;;6.22;37.18
74921;BME280;63483;47.384;8.860;2024-02-21T11:36:51;95004.88;;;6.24;37.07
74921;BME280;63483;47.384;8.860;2024-02-21T11:39:21;94995.53;;;6.31;37.53
74921;BME280;63483;47.384;8.860;2024-02-21T11:42:06;94998.22;;;6.39;38.88
74921;BME280;63483;47.384;8.860;2024-02-21T11:44:35;94984.34;;;6.48;38.77
74921;BME280;63483;47.384;8.860;2024-02-21T11:47:03;94989.66;;;6.57;36.92
74921;BME280;63483;47.384;8.860;2024-02-21T11:49:29;94987.72;;;6.59;36.21
74921;BME280;63483;47.384;8.860;2024-02-21T11:52:02;94984.44;;;6.57;36.11
74921;BME280;63483;47.384;8.860;2024-02-21T11:54:30;94979.69;;;6.70;35.96
74921;BME280;63483;47.384;8.860;2024-02-21T11:56:55;94966.09;;;6.76;35.17
74921;BME280;63483;47.384;8.860;2024-02-21T11:59:20;94959.63;;;6.80;35.78
74921;BME280;63483;47.384;8.860;2024-02-21T12:01:46;94959.31;;;6.83;35.52
74921;BME280;63483;47.384;8.860;2024-02-21T12:04:12;94950.72;;;6.83;36.21
74921;BME280;63483;47.384;8.860;2024-02-21T12:06:38;94942.81;;;6.93;35.48
74921;BME280;63483;47.384;8.860;2024-02-21T12:09:07;94940.59;;;6.98;35.00
74921;BME280;63483;47.384;8.860;2024-02-21T12:11:34;94937.69;;;7.01;36.07
74921;BME280;63483;47.384;8.860;2024-02-21T12:14:03;94936.56;;;7.03;35.27
74921;BME280;63483;47.384;8.860;2024-02-21T12:16:30;94926.00;;;7.05;34.64
74921;BME280;63483;47.384;8.860;2024-02-21T12:19:00;94928.94;;;7.10;34.72
74921;BME280;63483;47.384;8.860;2024-02-21T12:21:34;94921.78;;;7.12;34.43
74921;BME280;63483;47.384;8.860;2024-02-21T12:24:21;94920.69;;;7.15;35.15
74921;BME280;63483;47.384;8.860;2024-02-21T12:26:47;94921.22;;;7.18;35.67
74921;BME280;63483;47.384;8.860;2024-02-21T12:29:12;94917.03;;;7.26;35.16
74921;BME280;63483;47.384;8.860;2024-02-21T12:31:38;94913.44;;;7.27;34.71
74921;BME280;63483;47.384;8.860;2024-02-21T12:34:04;94907.72;;;7.23;34.29
74921;BME280;63483;47.384;8.860;2024-02-21T12:36:32;94900.78;;;7.32;34.41
74921;BME280;63483;47.384;8.860;2024-02-21T12:38:58;94912.50;;;7.36;34.78
74921;BME280;63483;47.384;8.860;2024-02-21T12:41:24;94902.09;;;7.36;34.60
74921;BME280;63483;47.384;8.860;2024-02-21T12:43:52;94901.19;;;7.45;34.61
74921;BME280;63483;47.384;8.860;2024-02-21T12:46:17;94897.44;;;7.48;34.33
74921;BME280;63483;47.384;8.860;2024-02-21T12:48:42;94901.84;;;7.47;35.17
74921;BME280;63483;47.384;8.860;2024-02-21T12:51:09;94897.75;;;7.45;33.94
74921;BME280;63483;47.384;8.860;2024-02-21T12:53:35;94893.72;;;7.50;34.00
74921;BME280;63483;47.384;8.860;2024-02-21T12:56:00;94897.00;;;7.52;34.31
74921;BME280;63483;47.384;8.860;2024-02-21T12:58:25;94882.00;;;7.54;33.93
74921;BME280;63483;47.384;8.860;2024-02-21T13:00:51;94875.16;;;7.53;33.85
74921;BME280;63483;47.384;8.860;2024-02-21T13:03:16;94868.34;;;7.61;34.41
74921;BME280;63483;47.384;8.860;2024-02-21T13:05:41;94852.72;;;7.61;35.05
74921;BME280;63483;47.384;8.860;2024-02-21T13:08:07;94854.06;;;7.65;35.16
74921;BME280;63483;47.384;8.860;2024-02-21T13:10:33;94846.91;;;7.67;35.75